EZY8748 LGZA-EGKK
Flight info
| Callsign | EZY8748 |
|---|---|
| Flight time | N/A |
| Altitude | 36000 |
| Route | OSDE2H OSDES DCT URAKI DCT KRK UL53 OLGAT DCT ABADI DCT CRAYE DCT GISAM DCT IPKIS DCT IXONA DCT LILEE DCT TES DCT ARLUK DCT TNT DCT RESIA DCT ERMUS DCT HOC DCT PILON DCT MELKO DCT PIKAG DCT SOMIL DCT KUNAV KUNA1G |
| Aircraft | A319/M-SDE2E3FGHIRWXY/LB1 |
Departure
| Time | 2026-04-27 18:06 |
|---|---|
| Airport | Zakynthos International Airport Dionysios Solomos (LGZA) |
Arrival
| Time | N/A |
|---|---|
| Airport | London Gatwick Airport (EGKK) |
| Time | Latitude | Longitude | Altitude | Speed | Heading |
|---|---|---|---|---|---|
| 2026-04-27 17:39 | 37.75449 | 20.88511 | 20 ft | 0 kts | 73° |
| 2026-04-27 17:54 | 37.75449 | 20.88510 | 20 ft | 0 kts | 73° |
| 2026-04-27 17:54 | 37.75447 | 20.88500 | 20 ft | 1 kts | 73° |
| 2026-04-27 17:54 | 37.75444 | 20.88488 | 22 ft | 1 kts | 73° |
| 2026-04-27 17:55 | 37.75441 | 20.88475 | 22 ft | 1 kts | 73° |
| 2026-04-27 17:55 | 37.75438 | 20.88463 | 21 ft | 1 kts | 65° |
| 2026-04-27 17:55 | 37.75434 | 20.88451 | 21 ft | 1 kts | 48° |
| 2026-04-27 17:55 | 37.75430 | 20.88445 | 21 ft | 1 kts | 22° |
| 2026-04-27 17:56 | 37.75427 | 20.88442 | 24 ft | 0 kts | 357° |
| 2026-04-27 17:56 | 37.75423 | 20.88441 | 24 ft | 0 kts | 334° |
| 2026-04-27 18:00 | 37.75428 | 20.88435 | 21 ft | 3 kts | 320° |
| 2026-04-27 18:01 | 37.75447 | 20.88417 | 20 ft | 3 kts | 326° |
| 2026-04-27 18:01 | 37.75464 | 20.88394 | 21 ft | 4 kts | 301° |
| 2026-04-27 18:01 | 37.75475 | 20.88354 | 23 ft | 5 kts | 287° |
| 2026-04-27 18:01 | 37.75492 | 20.88299 | 22 ft | 8 kts | 301° |
| 2026-04-27 18:02 | 37.75543 | 20.88258 | 21 ft | 10 kts | 340° |
| 2026-04-27 18:02 | 37.75638 | 20.88222 | 22 ft | 15 kts | 343° |
| 2026-04-27 18:02 | 37.75737 | 20.88185 | 23 ft | 15 kts | 343° |
| 2026-04-27 18:02 | 37.75836 | 20.88148 | 22 ft | 15 kts | 343° |
| 2026-04-27 18:03 | 37.75940 | 20.88109 | 21 ft | 16 kts | 343° |
| 2026-04-27 18:03 | 37.76009 | 20.88098 | 20 ft | 7 kts | 15° |
| 2026-04-27 18:03 | 37.76055 | 20.88108 | 20 ft | 7 kts | 343° |
| 2026-04-27 18:03 | 37.76065 | 20.88064 | 20 ft | 5 kts | 236° |
| 2026-04-27 18:04 | 37.76034 | 20.88070 | 23 ft | 5 kts | 148° |
| 2026-04-27 18:04 | 37.76003 | 20.88088 | 24 ft | 5 kts | 162° |
| 2026-04-27 18:04 | 37.75980 | 20.88095 | 20 ft | 0 kts | 166° |
| 2026-04-27 18:05 | 37.75743 | 20.88181 | 23 ft | 72 kts | 163° |
| 2026-04-27 18:06 | 37.75049 | 20.88446 | 19 ft | 133 kts | 163° |
| 2026-04-27 18:06 | 37.74032 | 20.88821 | 233 ft | 156 kts | 164° |
| 2026-04-27 18:06 | 37.73018 | 20.88958 | 935 ft | 147 kts | 188° |
| 2026-04-27 18:06 | 37.72098 | 20.88452 | 1490 ft | 148 kts | 217° |
| 2026-04-27 18:07 | 37.71448 | 20.87402 | 1882 ft | 159 kts | 243° |
| 2026-04-27 18:07 | 37.71214 | 20.86000 | 2281 ft | 171 kts | 268° |
| 2026-04-27 18:07 | 37.71448 | 20.84475 | 2598 ft | 188 kts | 289° |
| 2026-04-27 18:07 | 37.72104 | 20.82926 | 2748 ft | 208 kts | 293° |
| 2026-04-27 18:08 | 37.72346 | 20.81124 | 3106 ft | 212 kts | 269° |
| 2026-04-27 18:08 | 37.72583 | 20.79215 | 3376 ft | 230 kts | 284° |
| 2026-04-27 18:08 | 37.73097 | 20.77213 | 3612 ft | 249 kts | 288° |
| 2026-04-27 18:08 | 37.73690 | 20.75060 | 3900 ft | 266 kts | 288° |
| 2026-04-27 18:09 | 37.74271 | 20.72816 | 4466 ft | 270 kts | 286° |
| 2026-04-27 18:09 | 37.74813 | 20.70530 | 5062 ft | 273 kts | 284° |
| 2026-04-27 18:09 | 37.75446 | 20.68290 | 5609 ft | 278 kts | 298° |
| 2026-04-27 18:09 | 37.76708 | 20.66441 | 6137 ft | 282 kts | 323° |
| 2026-04-27 18:10 | 37.78480 | 20.65389 | 6668 ft | 284 kts | 349° |
| 2026-04-27 18:10 | 37.80438 | 20.65360 | 7201 ft | 283 kts | 14° |
| 2026-04-27 18:10 | 37.82323 | 20.66180 | 7741 ft | 284 kts | 23° |
| 2026-04-27 18:10 | 37.84167 | 20.67084 | 8294 ft | 285 kts | 22° |
| 2026-04-27 18:11 | 37.86026 | 20.67997 | 8832 ft | 287 kts | 23° |
| 2026-04-27 18:11 | 37.87889 | 20.68910 | 9365 ft | 289 kts | 22° |
| 2026-04-27 18:11 | 37.89776 | 20.69834 | 9899 ft | 291 kts | 22° |
| 2026-04-27 18:11 | 37.91677 | 20.70761 | 10293 ft | 297 kts | 22° |
| 2026-04-27 18:12 | 37.93630 | 20.71714 | 10405 ft | 311 kts | 22° |
| 2026-04-27 18:12 | 37.95690 | 20.72719 | 10526 ft | 323 kts | 22° |
| 2026-04-27 18:12 | 37.97819 | 20.73759 | 10762 ft | 330 kts | 22° |
| 2026-04-27 18:12 | 37.99967 | 20.74812 | 11072 ft | 333 kts | 22° |
| 2026-04-27 18:13 | 38.02131 | 20.75871 | 11390 ft | 335 kts | 21° |
| 2026-04-27 18:13 | 38.04313 | 20.76940 | 11722 ft | 336 kts | 21° |
| 2026-04-27 18:13 | 38.06504 | 20.78013 | 12037 ft | 338 kts | 21° |
| 2026-04-27 18:13 | 38.08701 | 20.79088 | 12362 ft | 339 kts | 21° |
| 2026-04-27 18:14 | 38.10912 | 20.80171 | 12670 ft | 341 kts | 20° |
| 2026-04-27 18:14 | 38.13130 | 20.81256 | 12971 ft | 342 kts | 20° |
| 2026-04-27 18:14 | 38.15336 | 20.82337 | 13579 ft | 332 kts | 20° |
| 2026-04-27 18:14 | 38.17460 | 20.83383 | 14213 ft | 324 kts | 20° |
| 2026-04-27 18:15 | 38.19515 | 20.84397 | 14961 ft | 309 kts | 19° |
| 2026-04-27 18:15 | 38.21461 | 20.85359 | 15743 ft | 295 kts | 19° |
| 2026-04-27 18:15 | 38.23372 | 20.86301 | 16357 ft | 300 kts | 19° |
| 2026-04-27 18:15 | 38.25390 | 20.87288 | 16496 ft | 321 kts | 19° |
| 2026-04-27 18:16 | 38.27543 | 20.88342 | 16634 ft | 341 kts | 19° |
| 2026-04-27 18:16 | 38.29822 | 20.89449 | 16766 ft | 360 kts | 17° |
| 2026-04-27 18:16 | 38.32307 | 20.90211 | 16893 ft | 375 kts | 5° |
| 2026-04-27 18:16 | 38.34946 | 20.90292 | 17117 ft | 386 kts | 352° |
| 2026-04-27 18:17 | 38.37585 | 20.89632 | 17601 ft | 388 kts | 340° |
| 2026-04-27 18:17 | 38.40065 | 20.88288 | 18174 ft | 389 kts | 328° |
| 2026-04-27 18:17 | 38.42284 | 20.86308 | 18707 ft | 390 kts | 319° |
| 2026-04-27 18:17 | 38.44401 | 20.84124 | 19235 ft | 392 kts | 319° |
| 2026-04-27 18:18 | 38.46525 | 20.81927 | 19740 ft | 394 kts | 320° |
| 2026-04-27 18:18 | 38.48661 | 20.79716 | 20243 ft | 397 kts | 320° |
| 2026-04-27 18:18 | 38.50808 | 20.77490 | 20741 ft | 399 kts | 320° |
| 2026-04-27 18:18 | 38.52970 | 20.75244 | 21218 ft | 401 kts | 320° |
| 2026-04-27 18:19 | 38.55114 | 20.73015 | 21674 ft | 404 kts | 320° |
| 2026-04-27 18:19 | 38.57300 | 20.70745 | 22136 ft | 406 kts | 320° |
| 2026-04-27 18:19 | 38.59498 | 20.68464 | 22585 ft | 408 kts | 320° |
| 2026-04-27 18:19 | 38.61704 | 20.66170 | 23036 ft | 410 kts | 320° |
| 2026-04-27 18:20 | 38.63923 | 20.63855 | 23503 ft | 412 kts | 320° |
| 2026-04-27 18:20 | 38.66146 | 20.61532 | 23891 ft | 414 kts | 320° |
| 2026-04-27 18:20 | 38.68386 | 20.59194 | 24249 ft | 416 kts | 320° |
| 2026-04-27 18:20 | 38.70640 | 20.56847 | 24603 ft | 418 kts | 320° |
| 2026-04-27 18:21 | 38.72905 | 20.54489 | 24949 ft | 420 kts | 320° |
| 2026-04-27 18:21 | 38.75178 | 20.52116 | 25286 ft | 423 kts | 320° |
| 2026-04-27 18:21 | 38.77461 | 20.49724 | 25630 ft | 425 kts | 320° |
| 2026-04-27 18:21 | 38.79752 | 20.47319 | 25959 ft | 427 kts | 320° |
| 2026-04-27 18:22 | 38.82114 | 20.45011 | 26284 ft | 429 kts | 326° |
| 2026-04-27 18:22 | 38.84742 | 20.43165 | 26612 ft | 433 kts | 333° |
| 2026-04-27 18:22 | 38.87483 | 20.41542 | 26921 ft | 435 kts | 333° |
| 2026-04-27 18:22 | 38.90235 | 20.39904 | 27225 ft | 437 kts | 333° |
| 2026-04-27 18:23 | 38.92994 | 20.38257 | 27521 ft | 439 kts | 333° |
| 2026-04-27 18:23 | 38.95767 | 20.36598 | 27815 ft | 441 kts | 333° |
| 2026-04-27 18:23 | 38.98554 | 20.34927 | 28104 ft | 443 kts | 333° |
| 2026-04-27 18:23 | 39.01351 | 20.33248 | 28389 ft | 445 kts | 333° |
| 2026-04-27 18:24 | 39.04165 | 20.31559 | 28673 ft | 446 kts | 333° |
| 2026-04-27 18:24 | 39.06980 | 20.29872 | 29069 ft | 446 kts | 333° |
| 2026-04-27 18:24 | 39.09790 | 20.28184 | 29487 ft | 445 kts | 333° |
| 2026-04-27 18:24 | 39.12591 | 20.26500 | 29911 ft | 443 kts | 333° |
| 2026-04-27 18:25 | 39.15379 | 20.24821 | 30323 ft | 442 kts | 333° |
| 2026-04-27 18:25 | 39.18125 | 20.23167 | 30676 ft | 441 kts | 333° |
| 2026-04-27 18:25 | 39.20900 | 20.21495 | 31034 ft | 440 kts | 333° |
| 2026-04-27 18:25 | 39.23677 | 20.19821 | 31386 ft | 439 kts | 333° |
| 2026-04-27 18:26 | 39.26441 | 20.18154 | 31742 ft | 438 kts | 333° |
| 2026-04-27 18:26 | 39.29203 | 20.16490 | 32104 ft | 437 kts | 332° |
| 2026-04-27 18:26 | 39.31956 | 20.14826 | 32467 ft | 436 kts | 332° |
| 2026-04-27 18:26 | 39.34702 | 20.13162 | 32829 ft | 435 kts | 332° |
| 2026-04-27 18:27 | 39.37436 | 20.11501 | 33215 ft | 434 kts | 332° |
| 2026-04-27 18:27 | 39.40168 | 20.09840 | 33588 ft | 432 kts | 332° |
| 2026-04-27 18:27 | 39.42846 | 20.08097 | 33960 ft | 430 kts | 327° |
| 2026-04-27 18:27 | 39.45285 | 20.05895 | 34268 ft | 427 kts | 318° |
| 2026-04-27 18:28 | 39.47434 | 20.03265 | 34564 ft | 425 kts | 313° |
| 2026-04-27 18:28 | 39.49501 | 20.00532 | 34858 ft | 424 kts | 313° |
| 2026-04-27 18:28 | 39.51563 | 19.97809 | 35141 ft | 424 kts | 313° |
| 2026-04-27 18:28 | 39.53628 | 19.95084 | 35420 ft | 423 kts | 313° |
| 2026-04-27 18:29 | 39.55689 | 19.92366 | 35684 ft | 423 kts | 313° |
| 2026-04-27 18:29 | 39.57750 | 19.89647 | 35937 ft | 422 kts | 313° |
| 2026-04-27 18:29 | 39.59809 | 19.86929 | 36039 ft | 424 kts | 313° |
| 2026-04-27 18:29 | 39.61874 | 19.84197 | 36066 ft | 424 kts | 313° |
| 2026-04-27 18:30 | 39.65995 | 19.78721 | 36061 ft | 424 kts | 313° |
| 2026-04-27 18:30 | 39.71484 | 19.71410 | 36065 ft | 423 kts | 313° |
| 2026-04-27 18:31 | 39.79694 | 19.60460 | 36082 ft | 423 kts | 313° |
| 2026-04-27 18:31 | 39.87901 | 19.49478 | 36082 ft | 423 kts | 313° |
| 2026-04-27 18:32 | 39.96076 | 19.38487 | 36099 ft | 422 kts | 312° |
| 2026-04-27 18:32 | 40.04225 | 19.27494 | 36092 ft | 421 kts | 312° |
| 2026-04-27 18:33 | 40.12368 | 19.16476 | 36088 ft | 420 kts | 312° |
| 2026-04-27 18:33 | 40.20476 | 19.05454 | 36094 ft | 420 kts | 312° |
| 2026-04-27 18:34 | 40.29793 | 18.96327 | 36095 ft | 424 kts | 329° |
| 2026-04-27 18:34 | 40.40212 | 18.89030 | 36085 ft | 424 kts | 329° |
| 2026-04-27 18:35 | 40.50625 | 18.81722 | 36096 ft | 424 kts | 329° |
| 2026-04-27 18:35 | 40.61036 | 18.74405 | 36084 ft | 424 kts | 329° |
| 2026-04-27 18:36 | 40.71364 | 18.67108 | 36093 ft | 424 kts | 329° |
| 2026-04-27 18:36 | 40.81798 | 18.59857 | 36084 ft | 424 kts | 330° |
| 2026-04-27 18:37 | 40.92318 | 18.52797 | 36097 ft | 424 kts | 330° |
| 2026-04-27 18:37 | 41.02801 | 18.45629 | 36082 ft | 424 kts | 330° |
| 2026-04-27 18:38 | 41.19310 | 18.34319 | 36080 ft | 425 kts | 331° |
| 2026-04-27 18:38 | 41.40349 | 18.19824 | 36082 ft | 425 kts | 331° |
| 2026-04-27 18:39 | 41.60625 | 18.03723 | 36087 ft | 424 kts | 326° |
| 2026-04-27 18:39 | 41.80287 | 17.86232 | 36083 ft | 424 kts | 325° |
| 2026-04-27 18:40 | 41.98714 | 17.66657 | 36076 ft | 424 kts | 315° |
| 2026-04-27 18:40 | 42.15365 | 17.44467 | 36087 ft | 424 kts | 315° |
| 2026-04-27 18:41 | 42.32097 | 17.21895 | 36081 ft | 425 kts | 315° |
| 2026-04-27 18:41 | 42.48833 | 16.99163 | 36076 ft | 426 kts | 315° |
| 2026-04-27 18:42 | 42.62713 | 16.80151 | 36086 ft | 426 kts | 315° |
| 2026-04-27 18:42 | 42.82188 | 16.53249 | 36089 ft | 427 kts | 315° |
| 2026-04-27 18:43 | 42.98819 | 16.30104 | 36078 ft | 427 kts | 315° |
| 2026-04-27 18:43 | 43.15377 | 16.06851 | 36098 ft | 426 kts | 315° |
| 2026-04-27 18:44 | 43.31877 | 15.83479 | 36095 ft | 426 kts | 314° |
| 2026-04-27 18:44 | 43.48302 | 15.60002 | 36082 ft | 426 kts | 314° |
| 2026-04-27 18:45 | 43.64694 | 15.36417 | 36096 ft | 425 kts | 314° |
| 2026-04-27 18:45 | 43.80921 | 15.12857 | 36078 ft | 426 kts | 314° |
| 2026-04-27 18:46 | 43.97220 | 14.88980 | 36075 ft | 426 kts | 313° |
| 2026-04-27 18:46 | 44.13487 | 14.64959 | 36089 ft | 427 kts | 314° |
| 2026-04-27 18:47 | 44.29682 | 14.40815 | 36103 ft | 426 kts | 313° |
| 2026-04-27 18:47 | 44.45686 | 14.16306 | 36077 ft | 426 kts | 312° |
| 2026-04-27 18:48 | 44.61520 | 13.91472 | 36080 ft | 427 kts | 312° |
| 2026-04-27 18:48 | 44.74633 | 13.70712 | 36068 ft | 427 kts | 312° |
| 2026-04-27 18:49 | 44.90383 | 13.45672 | 36089 ft | 427 kts | 313° |